Sunset Colony, South Dakota
Current Conditions -  °F | °C
As of 6:15 PM on Wednesday 28 Jan 2015 (Local Time) from KGWR Reporting Station
Overcast Overcast  
Wind Chill: 24°   Ceiling: 1500
Heat Index: 34°   Visibility: 10mi
Dew Point: 34°   Wind: 16mph
Humidity: 100%   Direction: 340°NNW
Pressure: 29.89"   Gusts: NA
Location:  45.8144°N, 97.7089°W
Report Text: KGWR 290015Z AUTO 34014KT 10SM FEW008 OVC015 01/01 A2989 RMK A01 P000
Loading
Personal Weather Stations






























Interactive Weather Map New forecast layout! Learn more

10-Day Weather Forecast

Advertisements
Track Severe Weather on mobile